Huoshan, China
Current Conditions -  °F | °C
As of 3:00 AM on Tuesday 23 Dec 2014 (Local Time) from ZSOF Reporting Station
Clear Clear  
Wind Chill: 28°   Ceiling: Unl
Heat Index: 34°   Visibility: 4mi
Dew Point: 19°   Wind: 7mph
Humidity: 56%   Direction: 100°E
Pressure: 30.24"   Gusts: NA
Location:  31.4°N, 116.33°E
Report Text: ZSOF 221900Z 10003MPS 7000 NSC 01/M07 Q1024 NOSIG
Loading
Personal Weather Stations






























Interactive Weather Map New forecast layout! Learn more

10-Day Weather Forecast

Advertisements
Track Severe Weather on mobile